Hlavní strana
METAR-TAF:

METAR-TAF

Letiště :

Jerez de la Frontera, Španělsko

zeměpisná šířka: 36-45N, zeměpisná délka: 006-04W, výška: 27 m

Aktuální stav počasí

Zpráva byla vytvořena před 14 minutami, v 19:00 UTC
Jihojihozápadní vítr 7 kt
Teplota 18°C
Vlhkost vzduchu 83%
Tlak 1021 hPa
Viditelnost 10 km a více
Oblačno až skoro zataženo ve výšce 2700 ft

METAR: LEJR 061900Z AUTO 20007KT 9999 BKN027 18/15 Q1021

Čas: 21:14 (19:14 UTC)

Předpověď počasí

Zpráva byla vytvořena před 2 hodinami a 14 minutami, v 17:00 UTC
Předpověď platná od 06 v 18 UTC do 07 v 18 UTC
Jihojihozápadní vítr 10 kt
Viditelnost 10 km a více
Polojasno ve výšce 3000 ft
Změna
od 06 v 19 UTC do 06 v 21 UTC
Jihovýchodní vítr 5 kt
Pravděpodobnost 40% :
Dočasný
od 07 v 03 UTC do 07 v 08 UTC
Viditelnost: 4000 m
kouřmo

TAF: LEJR 061700Z 0618/0718 21010KT 9999 SCT030 TX24/0715Z TN10/0706Z BECMG 0619/0621 14005KT PROB40 TEMPO 0703/0708 4000 BR

Stav a předpovědi počasí z více než 4 000 letišť (zprávy METAR a TAF).

Červené a žluté tečky na mapě představují dostupné meteorologické stanice.

Když kurzor umístíte na tečku, zobrazí se název stanice.

Pak kliknutím zobrazíte stav a předpověď počasí.

Chcete-li změnit mapu, kliknutím na zelené tlačítko se znaménkem +mapu přiblížíte, kliknutím na zelené tlačítko se znaménkem – mapu oddálíte a kliknutím na zelené šipky přejdete na sousední mapy.


METAR-TAF: